sensor_id;sensor_type;location;lat;lon;timestamp;P1;durP1;ratioP1;P2;durP2;ratioP2
26690;SDS011;14307;51.718;8.938;2023-07-13T00:01:52;24.80;;;23.00;;
26690;SDS011;14307;51.718;8.938;2023-07-13T00:04:20;25.42;;;23.33;;
26690;SDS011;14307;51.718;8.938;2023-07-13T00:06:49;24.27;;;22.33;;
26690;SDS011;14307;51.718;8.938;2023-07-13T00:09:17;23.73;;;21.83;;
26690;SDS011;14307;51.718;8.938;2023-07-13T00:11:44;23.88;;;21.75;;
26690;SDS011;14307;51.718;8.938;2023-07-13T00:14:13;23.25;;;21.55;;
26690;SDS011;14307;51.718;8.938;2023-07-13T00:16:41;23.02;;;21.35;;
26690;SDS011;14307;51.718;8.938;2023-07-13T00:19:10;23.42;;;21.25;;
26690;SDS011;14307;51.718;8.938;2023-07-13T00:21:38;23.60;;;21.50;;
26690;SDS011;14307;51.718;8.938;2023-07-13T00:24:06;23.48;;;21.38;;
26690;SDS011;14307;51.718;8.938;2023-07-13T00:26:41;22.85;;;21.25;;
26690;SDS011;14307;51.718;8.938;2023-07-13T00:29:12;22.90;;;21.20;;
26690;SDS011;14307;51.718;8.938;2023-07-13T00:31:39;23.05;;;21.20;;
26690;SDS011;14307;51.718;8.938;2023-07-13T00:34:06;23.38;;;21.52;;
26690;SDS011;14307;51.718;8.938;2023-07-13T00:36:33;22.40;;;20.75;;
26690;SDS011;14307;51.718;8.938;2023-07-13T00:39:00;23.98;;;21.98;;
26690;SDS011;14307;51.718;8.938;2023-07-13T00:41:27;23.13;;;21.50;;
26690;SDS011;14307;51.718;8.938;2023-07-13T00:43:55;24.15;;;22.08;;
26690;SDS011;14307;51.718;8.938;2023-07-13T00:46:23;25.58;;;22.30;;
26690;SDS011;14307;51.718;8.938;2023-07-13T00:48:55;23.73;;;21.63;;
26690;SDS011;14307;51.718;8.938;2023-07-13T00:51:27;23.13;;;21.20;;
26690;SDS011;14307;51.718;8.938;2023-07-13T00:54:17;22.65;;;20.65;;
26690;SDS011;14307;51.718;8.938;2023-07-13T00:56:50;23.65;;;21.63;;
26690;SDS011;14307;51.718;8.938;2023-07-13T00:59:19;24.27;;;22.08;;
26690;SDS011;14307;51.718;8.938;2023-07-13T01:01:48;23.30;;;21.33;;
26690;SDS011;14307;51.718;8.938;2023-07-13T01:04:16;23.40;;;21.58;;
26690;SDS011;14307;51.718;8.938;2023-07-13T01:06:44;24.30;;;21.90;;
26690;SDS011;14307;51.718;8.938;2023-07-13T01:09:13;22.05;;;20.25;;
26690;SDS011;14307;51.718;8.938;2023-07-13T01:11:42;21.48;;;20.05;;
26690;SDS011;14307;51.718;8.938;2023-07-13T01:14:08;21.23;;;19.70;;
26690;SDS011;14307;51.718;8.938;2023-07-13T01:16:36;21.95;;;20.45;;
26690;SDS011;14307;51.718;8.938;2023-07-13T01:19:07;21.30;;;19.75;;
26690;SDS011;14307;51.718;8.938;2023-07-13T01:21:49;23.23;;;21.23;;
26690;SDS011;14307;51.718;8.938;2023-07-13T01:24:17;22.70;;;20.85;;
26690;SDS011;14307;51.718;8.938;2023-07-13T01:26:43;24.08;;;22.17;;
26690;SDS011;14307;51.718;8.938;2023-07-13T01:29:10;22.67;;;20.83;;
26690;SDS011;14307;51.718;8.938;2023-07-13T01:31:37;21.50;;;20.02;;
26690;SDS011;14307;51.718;8.938;2023-07-13T01:34:04;23.00;;;21.40;;
26690;SDS011;14307;51.718;8.938;2023-07-13T01:36:32;22.13;;;20.27;;
26690;SDS011;14307;51.718;8.938;2023-07-13T01:38:59;21.70;;;19.70;;
26690;SDS011;14307;51.718;8.938;2023-07-13T01:41:26;22.33;;;20.27;;
26690;SDS011;14307;51.718;8.938;2023-07-13T01:43:53;25.40;;;19.90;;
26690;SDS011;14307;51.718;8.938;2023-07-13T01:46:20;21.70;;;20.00;;
26690;SDS011;14307;51.718;8.938;2023-07-13T01:48:50;22.25;;;20.23;;
26690;SDS011;14307;51.718;8.938;2023-07-13T01:51:17;21.95;;;19.98;;
26690;SDS011;14307;51.718;8.938;2023-07-13T01:53:45;20.35;;;18.85;;
26690;SDS011;14307;51.718;8.938;2023-07-13T01:56:12;21.02;;;19.45;;
26690;SDS011;14307;51.718;8.938;2023-07-13T01:58:39;23.00;;;20.75;;
26690;SDS011;14307;51.718;8.938;2023-07-13T02:01:06;22.98;;;20.92;;
26690;SDS011;14307;51.718;8.938;2023-07-13T02:03:33;21.60;;;19.63;;
26690;SDS011;14307;51.718;8.938;2023-07-13T02:06:00;21.23;;;19.23;;
26690;SDS011;14307;51.718;8.938;2023-07-13T02:08:26;21.27;;;19.17;;
26690;SDS011;14307;51.718;8.938;2023-07-13T02:10:53;20.88;;;19.17;;
26690;SDS011;14307;51.718;8.938;2023-07-13T02:13:20;23.13;;;18.33;;
26690;SDS011;14307;51.718;8.938;2023-07-13T02:15:49;21.17;;;19.08;;
26690;SDS011;14307;51.718;8.938;2023-07-13T02:18:18;21.20;;;19.20;;
26690;SDS011;14307;51.718;8.938;2023-07-13T02:20:45;22.42;;;19.67;;
26690;SDS011;14307;51.718;8.938;2023-07-13T02:23:12;21.40;;;19.05;;
26690;SDS011;14307;51.718;8.938;2023-07-13T02:25:39;19.98;;;18.02;;
26690;SDS011;14307;51.718;8.938;2023-07-13T02:28:07;20.38;;;18.88;;
26690;SDS011;14307;51.718;8.938;2023-07-13T02:30:34;20.35;;;18.63;;
26690;SDS011;14307;51.718;8.938;2023-07-13T02:33:01;20.77;;;18.98;;
26690;SDS011;14307;51.718;8.938;2023-07-13T02:35:28;21.17;;;19.23;;
26690;SDS011;14307;51.718;8.938;2023-07-13T02:37:57;21.25;;;19.33;;
26690;SDS011;14307;51.718;8.938;2023-07-13T02:40:24;22.05;;;20.13;;
26690;SDS011;14307;51.718;8.938;2023-07-13T02:42:51;22.25;;;20.20;;
26690;SDS011;14307;51.718;8.938;2023-07-13T02:45:20;23.90;;;21.48;;
26690;SDS011;14307;51.718;8.938;2023-07-13T02:47:47;22.27;;;20.45;;
26690;SDS011;14307;51.718;8.938;2023-07-13T02:50:14;23.25;;;21.33;;
26690;SDS011;14307;51.718;8.938;2023-07-13T02:52:40;23.23;;;20.90;;
26690;SDS011;14307;51.718;8.938;2023-07-13T02:55:07;22.50;;;20.65;;
26690;SDS011;14307;51.718;8.938;2023-07-13T02:57:36;22.75;;;20.70;;
26690;SDS011;14307;51.718;8.938;2023-07-13T03:00:04;22.63;;;20.50;;
26690;SDS011;14307;51.718;8.938;2023-07-13T03:02:32;23.00;;;20.88;;
26690;SDS011;14307;51.718;8.938;2023-07-13T03:05:00;22.45;;;20.40;;
26690;SDS011;14307;51.718;8.938;2023-07-13T03:07:27;22.63;;;20.33;;
26690;SDS011;14307;51.718;8.938;2023-07-13T03:09:56;21.17;;;19.50;;
26690;SDS011;14307;51.718;8.938;2023-07-13T03:12:26;22.65;;;20.35;;
26690;SDS011;14307;51.718;8.938;2023-07-13T03:14:54;22.83;;;20.90;;
26690;SDS011;14307;51.718;8.938;2023-07-13T03:17:21;20.58;;;19.08;;
26690;SDS011;14307;51.718;8.938;2023-07-13T03:19:48;21.63;;;19.88;;
26690;SDS011;14307;51.718;8.938;2023-07-13T03:22:18;20.52;;;18.88;;
26690;SDS011;14307;51.718;8.938;2023-07-13T03:24:46;21.52;;;19.23;;
26690;SDS011;14307;51.718;8.938;2023-07-13T03:27:15;21.17;;;19.13;;
26690;SDS011;14307;51.718;8.938;2023-07-13T03:29:44;22.27;;;20.00;;
26690;SDS011;14307;51.718;8.938;2023-07-13T03:32:12;20.85;;;19.17;;
26690;SDS011;14307;51.718;8.938;2023-07-13T03:34:39;21.60;;;19.60;;
26690;SDS011;14307;51.718;8.938;2023-07-13T03:37:06;21.05;;;19.45;;
26690;SDS011;14307;51.718;8.938;2023-07-13T03:39:35;22.00;;;19.90;;
26690;SDS011;14307;51.718;8.938;2023-07-13T03:42:02;22.92;;;20.35;;
26690;SDS011;14307;51.718;8.938;2023-07-13T03:44:29;21.60;;;19.42;;
26690;SDS011;14307;51.718;8.938;2023-07-13T03:46:56;23.10;;;20.95;;
26690;SDS011;14307;51.718;8.938;2023-07-13T03:49:23;22.58;;;20.67;;
26690;SDS011;14307;51.718;8.938;2023-07-13T03:51:50;22.00;;;20.40;;
26690;SDS011;14307;51.718;8.938;2023-07-13T03:54:19;22.20;;;20.60;;
26690;SDS011;14307;51.718;8.938;2023-07-13T03:56:46;22.08;;;20.40;;
26690;SDS011;14307;51.718;8.938;2023-07-13T03:59:15;24.00;;;21.65;;
26690;SDS011;14307;51.718;8.938;2023-07-13T04:01:42;22.88;;;20.98;;
26690;SDS011;14307;51.718;8.938;2023-07-13T04:04:11;23.48;;;21.50;;
26690;SDS011;14307;51.718;8.938;2023-07-13T04:06:38;23.92;;;21.90;;
26690;SDS011;14307;51.718;8.938;2023-07-13T04:09:05;22.95;;;20.75;;
26690;SDS011;14307;51.718;8.938;2023-07-13T04:11:32;22.77;;;20.60;;
26690;SDS011;14307;51.718;8.938;2023-07-13T04:13:59;22.45;;;20.63;;
26690;SDS011;14307;51.718;8.938;2023-07-13T04:16:26;22.30;;;20.27;;
26690;SDS011;14307;51.718;8.938;2023-07-13T04:18:53;21.52;;;19.88;;
26690;SDS011;14307;51.718;8.938;2023-07-13T04:21:23;21.92;;;20.17;;
26690;SDS011;14307;51.718;8.938;2023-07-13T04:23:50;23.10;;;21.00;;
26690;SDS011;14307;51.718;8.938;2023-07-13T04:26:17;21.90;;;20.05;;
26690;SDS011;14307;51.718;8.938;2023-07-13T04:28:47;22.00;;;20.17;;
26690;SDS011;14307;51.718;8.938;2023-07-13T04:31:14;22.08;;;20.42;;
26690;SDS011;14307;51.718;8.938;2023-07-13T04:33:41;22.08;;;20.38;;
26690;SDS011;14307;51.718;8.938;2023-07-13T04:36:08;22.48;;;20.48;;
26690;SDS011;14307;51.718;8.938;2023-07-13T04:38:36;22.42;;;20.58;;
26690;SDS011;14307;51.718;8.938;2023-07-13T04:41:04;23.02;;;21.13;;
26690;SDS011;14307;51.718;8.938;2023-07-13T04:43:32;24.83;;;22.45;;
26690;SDS011;14307;51.718;8.938;2023-07-13T04:46:07;23.40;;;21.45;;
26690;SDS011;14307;51.718;8.938;2023-07-13T04:48:37;24.15;;;22.10;;
26690;SDS011;14307;51.718;8.938;2023-07-13T04:51:04;23.55;;;21.75;;
26690;SDS011;14307;51.718;8.938;2023-07-13T04:53:32;23.95;;;21.95;;
26690;SDS011;14307;51.718;8.938;2023-07-13T04:56:00;23.33;;;21.52;;
26690;SDS011;14307;51.718;8.938;2023-07-13T04:58:28;23.38;;;21.67;;
26690;SDS011;14307;51.718;8.938;2023-07-13T05:01:05;24.48;;;22.70;;
26690;SDS011;14307;51.718;8.938;2023-07-13T05:03:32;24.40;;;22.30;;
26690;SDS011;14307;51.718;8.938;2023-07-13T05:06:02;24.73;;;22.90;;
26690;SDS011;14307;51.718;8.938;2023-07-13T05:08:30;26.13;;;23.90;;
26690;SDS011;14307;51.718;8.938;2023-07-13T05:10:59;25.08;;;23.38;;
26690;SDS011;14307;51.718;8.938;2023-07-13T05:13:27;24.63;;;22.90;;
26690;SDS011;14307;51.718;8.938;2023-07-13T05:15:56;25.85;;;23.75;;
26690;SDS011;14307;51.718;8.938;2023-07-13T05:18:28;25.80;;;23.42;;
26690;SDS011;14307;51.718;8.938;2023-07-13T05:20:57;25.70;;;23.52;;
26690;SDS011;14307;51.718;8.938;2023-07-13T05:23:27;24.25;;;22.35;;
26690;SDS011;14307;51.718;8.938;2023-07-13T05:25:55;23.98;;;22.38;;
26690;SDS011;14307;51.718;8.938;2023-07-13T05:28:22;24.95;;;23.05;;
26690;SDS011;14307;51.718;8.938;2023-07-13T05:30:49;24.85;;;22.75;;
26690;SDS011;14307;51.718;8.938;2023-07-13T05:33:16;26.35;;;23.90;;
26690;SDS011;14307;51.718;8.938;2023-07-13T05:35:43;26.42;;;24.17;;
26690;SDS011;14307;51.718;8.938;2023-07-13T05:38:10;25.33;;;23.48;;
26690;SDS011;14307;51.718;8.938;2023-07-13T05:40:37;25.92;;;23.48;;
26690;SDS011;14307;51.718;8.938;2023-07-13T05:43:04;25.33;;;23.30;;
26690;SDS011;14307;51.718;8.938;2023-07-13T05:45:31;24.40;;;22.58;;
26690;SDS011;14307;51.718;8.938;2023-07-13T05:47:58;24.83;;;22.83;;
26690;SDS011;14307;51.718;8.938;2023-07-13T05:50:25;25.13;;;22.67;;
26690;SDS011;14307;51.718;8.938;2023-07-13T05:52:53;24.45;;;22.42;;
26690;SDS011;14307;51.718;8.938;2023-07-13T05:55:20;24.70;;;22.90;;
26690;SDS011;14307;51.718;8.938;2023-07-13T05:57:47;23.80;;;22.10;;
26690;SDS011;14307;51.718;8.938;2023-07-13T06:00:14;26.55;;;24.35;;
26690;SDS011;14307;51.718;8.938;2023-07-13T06:02:41;25.80;;;23.88;;
26690;SDS011;14307;51.718;8.938;2023-07-13T06:05:08;26.67;;;24.60;;
26690;SDS011;14307;51.718;8.938;2023-07-13T06:07:35;25.80;;;23.75;;
26690;SDS011;14307;51.718;8.938;2023-07-13T06:10:02;26.02;;;23.85;;
26690;SDS011;14307;51.718;8.938;2023-07-13T06:12:29;26.42;;;24.45;;
26690;SDS011;14307;51.718;8.938;2023-07-13T06:14:56;25.75;;;23.65;;
26690;SDS011;14307;51.718;8.938;2023-07-13T06:17:23;25.77;;;23.60;;
26690;SDS011;14307;51.718;8.938;2023-07-13T06:19:50;26.80;;;24.70;;
26690;SDS011;14307;51.718;8.938;2023-07-13T06:22:17;26.05;;;24.02;;
26690;SDS011;14307;51.718;8.938;2023-07-13T06:24:44;26.42;;;24.50;;
26690;SDS011;14307;51.718;8.938;2023-07-13T06:27:10;26.85;;;24.88;;
26690;SDS011;14307;51.718;8.938;2023-07-13T06:29:37;27.30;;;25.13;;
26690;SDS011;14307;51.718;8.938;2023-07-13T06:32:04;26.88;;;24.60;;
26690;SDS011;14307;51.718;8.938;2023-07-13T06:34:31;26.50;;;24.50;;
26690;SDS011;14307;51.718;8.938;2023-07-13T06:36:58;25.98;;;24.08;;
26690;SDS011;14307;51.718;8.938;2023-07-13T06:39:25;26.08;;;24.08;;
26690;SDS011;14307;51.718;8.938;2023-07-13T06:41:52;26.00;;;24.13;;
26690;SDS011;14307;51.718;8.938;2023-07-13T06:44:18;26.05;;;23.85;;
26690;SDS011;14307;51.718;8.938;2023-07-13T06:46:45;26.23;;;24.27;;
26690;SDS011;14307;51.718;8.938;2023-07-13T06:49:12;26.63;;;24.52;;
26690;SDS011;14307;51.718;8.938;2023-07-13T06:51:38;26.58;;;24.45;;
26690;SDS011;14307;51.718;8.938;2023-07-13T06:54:05;26.85;;;24.63;;
26690;SDS011;14307;51.718;8.938;2023-07-13T06:56:32;26.83;;;25.02;;
26690;SDS011;14307;51.718;8.938;2023-07-13T06:58:59;26.35;;;23.98;;
26690;SDS011;14307;51.718;8.938;2023-07-13T07:01:26;26.58;;;24.58;;
26690;SDS011;14307;51.718;8.938;2023-07-13T07:03:52;26.42;;;24.23;;
26690;SDS011;14307;51.718;8.938;2023-07-13T07:06:21;27.35;;;24.83;;
26690;SDS011;14307;51.718;8.938;2023-07-13T07:08:50;25.60;;;23.67;;
26690;SDS011;14307;51.718;8.938;2023-07-13T07:11:22;26.15;;;24.10;;
26690;SDS011;14307;51.718;8.938;2023-07-13T07:13:50;26.70;;;24.38;;
26690;SDS011;14307;51.718;8.938;2023-07-13T07:16:19;25.35;;;23.52;;
26690;SDS011;14307;51.718;8.938;2023-07-13T07:18:46;26.42;;;24.33;;
26690;SDS011;14307;51.718;8.938;2023-07-13T07:21:14;26.83;;;24.80;;
26690;SDS011;14307;51.718;8.938;2023-07-13T07:23:41;26.90;;;24.50;;
26690;SDS011;14307;51.718;8.938;2023-07-13T07:26:09;29.60;;;27.38;;
26690;SDS011;14307;51.718;8.938;2023-07-13T07:28:36;28.42;;;26.02;;
26690;SDS011;14307;51.718;8.938;2023-07-13T07:31:06;28.40;;;26.10;;
26690;SDS011;14307;51.718;8.938;2023-07-13T07:33:36;29.48;;;26.75;;
26690;SDS011;14307;51.718;8.938;2023-07-13T07:36:03;28.52;;;26.00;;
26690;SDS011;14307;51.718;8.938;2023-07-13T07:38:33;28.23;;;25.90;;
26690;SDS011;14307;51.718;8.938;2023-07-13T07:41:02;28.55;;;26.25;;
26690;SDS011;14307;51.718;8.938;2023-07-13T07:43:33;28.55;;;26.23;;
26690;SDS011;14307;51.718;8.938;2023-07-13T07:46:00;28.48;;;26.27;;
26690;SDS011;14307;51.718;8.938;2023-07-13T07:48:29;28.05;;;25.85;;
26690;SDS011;14307;51.718;8.938;2023-07-13T07:50:56;27.90;;;25.85;;
26690;SDS011;14307;51.718;8.938;2023-07-13T07:53:23;26.55;;;24.70;;
26690;SDS011;14307;51.718;8.938;2023-07-13T07:55:49;28.50;;;26.25;;
26690;SDS011;14307;51.718;8.938;2023-07-13T07:58:20;28.83;;;26.70;;
26690;SDS011;14307;51.718;8.938;2023-07-13T08:00:50;29.35;;;26.95;;
26690;SDS011;14307;51.718;8.938;2023-07-13T08:03:20;28.45;;;26.27;;
26690;SDS011;14307;51.718;8.938;2023-07-13T08:05:52;27.42;;;25.27;;
26690;SDS011;14307;51.718;8.938;2023-07-13T08:08:23;28.08;;;25.90;;
26690;SDS011;14307;51.718;8.938;2023-07-13T08:10:50;27.30;;;24.95;;
26690;SDS011;14307;51.718;8.938;2023-07-13T08:13:20;30.13;;;27.50;;
26690;SDS011;14307;51.718;8.938;2023-07-13T08:15:47;27.83;;;25.63;;
26690;SDS011;14307;51.718;8.938;2023-07-13T08:18:14;28.08;;;26.02;;
26690;SDS011;14307;51.718;8.938;2023-07-13T08:20:41;29.20;;;26.92;;
26690;SDS011;14307;51.718;8.938;2023-07-13T08:23:09;29.30;;;27.08;;
26690;SDS011;14307;51.718;8.938;2023-07-13T08:25:36;28.67;;;26.45;;
26690;SDS011;14307;51.718;8.938;2023-07-13T08:28:03;29.40;;;26.95;;
26690;SDS011;14307;51.718;8.938;2023-07-13T08:30:30;27.90;;;25.60;;
26690;SDS011;14307;51.718;8.938;2023-07-13T08:32:57;27.98;;;25.92;;
26690;SDS011;14307;51.718;8.938;2023-07-13T08:35:24;27.58;;;25.58;;
26690;SDS011;14307;51.718;8.938;2023-07-13T08:37:52;26.88;;;24.77;;
26690;SDS011;14307;51.718;8.938;2023-07-13T08:40:19;28.48;;;25.95;;
26690;SDS011;14307;51.718;8.938;2023-07-13T08:42:55;27.70;;;25.65;;
26690;SDS011;14307;51.718;8.938;2023-07-13T08:45:44;28.75;;;26.08;;
26690;SDS011;14307;51.718;8.938;2023-07-13T08:48:19;29.88;;;27.60;;
26690;SDS011;14307;51.718;8.938;2023-07-13T08:50:57;31.30;;;28.77;;
26690;SDS011;14307;51.718;8.938;2023-07-13T08:53:31;29.05;;;26.58;;
26690;SDS011;14307;51.718;8.938;2023-07-13T08:56:04;26.80;;;24.63;;
26690;SDS011;14307;51.718;8.938;2023-07-13T08:58:37;30.05;;;27.83;;
26690;SDS011;14307;51.718;8.938;2023-07-13T09:01:12;28.52;;;26.42;;
26690;SDS011;14307;51.718;8.938;2023-07-13T09:06:35;30.20;;;27.60;;
26690;SDS011;14307;51.718;8.938;2023-07-13T09:09:26;31.15;;;28.60;;
26690;SDS011;14307;51.718;8.938;2023-07-13T09:14:49;28.63;;;26.42;;
26690;SDS011;14307;51.718;8.938;2023-07-13T09:17:25;29.38;;;26.90;;
26690;SDS011;14307;51.718;8.938;2023-07-13T09:20:14;28.83;;;26.92;;
26690;SDS011;14307;51.718;8.938;2023-07-13T09:22:55;29.70;;;27.17;;
26690;SDS011;14307;51.718;8.938;2023-07-13T09:25:32;31.95;;;29.55;;
26690;SDS011;14307;51.718;8.938;2023-07-13T09:28:02;30.40;;;28.10;;
26690;SDS011;14307;51.718;8.938;2023-07-13T09:30:45;32.05;;;29.30;;
26690;SDS011;14307;51.718;8.938;2023-07-13T09:33:20;31.98;;;29.50;;
26690;SDS011;14307;51.718;8.938;2023-07-13T09:35:47;28.05;;;25.23;;
26690;SDS011;14307;51.718;8.938;2023-07-13T09:38:15;28.38;;;25.85;;
26690;SDS011;14307;51.718;8.938;2023-07-13T09:40:49;27.20;;;25.23;;
26690;SDS011;14307;51.718;8.938;2023-07-13T09:44:00;33.92;;;31.23;;
26690;SDS011;14307;51.718;8.938;2023-07-13T09:46:38;28.13;;;25.63;;
26690;SDS011;14307;51.718;8.938;2023-07-13T09:49:10;28.50;;;26.27;;
26690;SDS011;14307;51.718;8.938;2023-07-13T09:51:38;26.65;;;24.75;;
26690;SDS011;14307;51.718;8.938;2023-07-13T09:54:20;28.17;;;25.48;;
26690;SDS011;14307;51.718;8.938;2023-07-13T09:56:54;31.55;;;29.15;;
26690;SDS011;14307;51.718;8.938;2023-07-13T09:59:32;28.30;;;26.08;;
26690;SDS011;14307;51.718;8.938;2023-07-13T10:02:00;27.63;;;25.52;;
26690;SDS011;14307;51.718;8.938;2023-07-13T10:04:31;28.98;;;26.20;;
26690;SDS011;14307;51.718;8.938;2023-07-13T10:07:06;31.05;;;28.63;;
26690;SDS011;14307;51.718;8.938;2023-07-13T10:09:56;28.45;;;25.98;;
26690;SDS011;14307;51.718;8.938;2023-07-13T10:12:23;32.67;;;29.90;;
26690;SDS011;14307;51.718;8.938;2023-07-13T10:14:52;31.52;;;28.85;;
26690;SDS011;14307;51.718;8.938;2023-07-13T10:17:42;31.65;;;29.08;;
26690;SDS011;14307;51.718;8.938;2023-07-13T10:20:10;31.58;;;29.38;;
26690;SDS011;14307;51.718;8.938;2023-07-13T10:22:43;31.00;;;28.73;;
26690;SDS011;14307;51.718;8.938;2023-07-13T10:25:18;33.08;;;30.70;;
26690;SDS011;14307;51.718;8.938;2023-07-13T10:27:52;31.38;;;28.95;;
26690;SDS011;14307;51.718;8.938;2023-07-13T10:30:29;32.57;;;30.13;;
26690;SDS011;14307;51.718;8.938;2023-07-13T10:33:02;30.70;;;27.80;;
26690;SDS011;14307;51.718;8.938;2023-07-13T10:35:31;30.15;;;27.48;;
26690;SDS011;14307;51.718;8.938;2023-07-13T10:38:06;32.00;;;29.38;;
26690;SDS011;14307;51.718;8.938;2023-07-13T10:40:39;31.55;;;29.23;;
26690;SDS011;14307;51.718;8.938;2023-07-13T10:43:18;31.45;;;29.05;;
26690;SDS011;14307;51.718;8.938;2023-07-13T10:45:50;29.27;;;26.95;;
26690;SDS011;14307;51.718;8.938;2023-07-13T10:48:17;28.83;;;26.80;;
26690;SDS011;14307;51.718;8.938;2023-07-13T10:50:46;29.98;;;27.63;;
26690;SDS011;14307;51.718;8.938;2023-07-13T10:53:30;30.20;;;28.13;;
26690;SDS011;14307;51.718;8.938;2023-07-13T10:58:32;30.10;;;27.80;;
26690;SDS011;14307;51.718;8.938;2023-07-13T11:01:10;35.28;;;32.80;;
26690;SDS011;14307;51.718;8.938;2023-07-13T11:11:32;29.23;;;26.98;;
26690;SDS011;14307;51.718;8.938;2023-07-13T11:14:03;28.48;;;26.38;;
26690;SDS011;14307;51.718;8.938;2023-07-13T11:16:50;31.67;;;28.77;;
26690;SDS011;14307;51.718;8.938;2023-07-13T11:27:40;34.47;;;31.90;;
26690;SDS011;14307;51.718;8.938;2023-07-13T11:32:44;30.88;;;28.30;;
26690;SDS011;14307;51.718;8.938;2023-07-13T11:35:17;28.58;;;26.27;;
26690;SDS011;14307;51.718;8.938;2023-07-13T11:37:50;29.75;;;27.45;;
26690;SDS011;14307;51.718;8.938;2023-07-13T11:40:17;30.85;;;28.20;;
26690;SDS011;14307;51.718;8.938;2023-07-13T11:42:44;30.17;;;27.67;;
26690;SDS011;14307;51.718;8.938;2023-07-13T11:45:20;30.23;;;27.83;;
26690;SDS011;14307;51.718;8.938;2023-07-13T11:48:00;30.67;;;28.23;;
26690;SDS011;14307;51.718;8.938;2023-07-13T11:50:27;30.67;;;28.02;;
26690;SDS011;14307;51.718;8.938;2023-07-13T11:52:57;32.53;;;30.13;;
26690;SDS011;14307;51.718;8.938;2023-07-13T11:55:25;33.33;;;30.98;;
26690;SDS011;14307;51.718;8.938;2023-07-13T11:57:57;33.28;;;30.77;;
26690;SDS011;14307;51.718;8.938;2023-07-13T12:00:28;29.48;;;26.98;;
26690;SDS011;14307;51.718;8.938;2023-07-13T12:03:00;29.05;;;27.02;;
26690;SDS011;14307;51.718;8.938;2023-07-13T12:05:31;29.70;;;27.30;;
26690;SDS011;14307;51.718;8.938;2023-07-13T12:07:58;35.10;;;32.53;;
26690;SDS011;14307;51.718;8.938;2023-07-13T12:10:34;36.50;;;33.83;;
26690;SDS011;14307;51.718;8.938;2023-07-13T12:13:02;31.33;;;28.90;;
26690;SDS011;14307;51.718;8.938;2023-07-13T12:15:35;29.15;;;26.90;;
26690;SDS011;14307;51.718;8.938;2023-07-13T12:18:10;30.25;;;27.90;;
26690;SDS011;14307;51.718;8.938;2023-07-13T12:20:55;32.25;;;29.67;;
26690;SDS011;14307;51.718;8.938;2023-07-13T12:23:27;32.05;;;29.58;;
26690;SDS011;14307;51.718;8.938;2023-07-13T12:26:00;31.17;;;28.67;;
26690;SDS011;14307;51.718;8.938;2023-07-13T12:28:33;30.13;;;27.98;;
26690;SDS011;14307;51.718;8.938;2023-07-13T12:31:25;30.25;;;28.05;;
26690;SDS011;14307;51.718;8.938;2023-07-13T12:33:59;30.50;;;28.30;;
26690;SDS011;14307;51.718;8.938;2023-07-13T12:36:27;30.20;;;28.10;;
26690;SDS011;14307;51.718;8.938;2023-07-13T12:38:59;31.85;;;29.63;;
26690;SDS011;14307;51.718;8.938;2023-07-13T12:41:30;30.20;;;27.90;;
26690;SDS011;14307;51.718;8.938;2023-07-13T12:43:58;29.23;;;27.13;;
26690;SDS011;14307;51.718;8.938;2023-07-13T12:46:26;29.75;;;27.45;;
26690;SDS011;14307;51.718;8.938;2023-07-13T12:48:56;30.38;;;27.92;;
26690;SDS011;14307;51.718;8.938;2023-07-13T12:51:42;30.25;;;28.15;;
26690;SDS011;14307;51.718;8.938;2023-07-13T12:54:13;30.23;;;28.02;;
26690;SDS011;14307;51.718;8.938;2023-07-13T12:56:43;30.05;;;27.95;;
26690;SDS011;14307;51.718;8.938;2023-07-13T12:59:15;30.63;;;28.52;;
26690;SDS011;14307;51.718;8.938;2023-07-13T13:01:45;29.85;;;27.63;;
26690;SDS011;14307;51.718;8.938;2023-07-13T13:04:15;30.50;;;28.50;;
26690;SDS011;14307;51.718;8.938;2023-07-13T13:06:48;31.08;;;28.73;;
26690;SDS011;14307;51.718;8.938;2023-07-13T13:09:27;30.95;;;28.85;;
26690;SDS011;14307;51.718;8.938;2023-07-13T13:11:54;30.05;;;27.92;;
26690;SDS011;14307;51.718;8.938;2023-07-13T13:14:21;30.63;;;28.15;;
26690;SDS011;14307;51.718;8.938;2023-07-13T13:16:50;30.90;;;28.45;;
26690;SDS011;14307;51.718;8.938;2023-07-13T13:19:22;32.33;;;30.23;;
26690;SDS011;14307;51.718;8.938;2023-07-13T13:21:52;33.38;;;31.23;;
26690;SDS011;14307;51.718;8.938;2023-07-13T13:24:21;34.20;;;31.45;;
26690;SDS011;14307;51.718;8.938;2023-07-13T13:26:51;35.00;;;32.15;;
26690;SDS011;14307;51.718;8.938;2023-07-13T13:29:20;30.10;;;28.00;;
26690;SDS011;14307;51.718;8.938;2023-07-13T13:31:52;29.83;;;27.73;;
26690;SDS011;14307;51.718;8.938;2023-07-13T13:34:20;30.15;;;27.95;;
26690;SDS011;14307;51.718;8.938;2023-07-13T13:36:53;30.15;;;27.85;;
26690;SDS011;14307;51.718;8.938;2023-07-13T13:39:28;32.85;;;30.52;;
26690;SDS011;14307;51.718;8.938;2023-07-13T13:42:00;33.75;;;31.25;;
26690;SDS011;14307;51.718;8.938;2023-07-13T13:44:26;33.65;;;30.95;;
26690;SDS011;14307;51.718;8.938;2023-07-13T13:46:54;31.73;;;29.73;;
26690;SDS011;14307;51.718;8.938;2023-07-13T13:49:23;33.38;;;30.83;;
26690;SDS011;14307;51.718;8.938;2023-07-13T13:51:51;32.45;;;30.13;;
26690;SDS011;14307;51.718;8.938;2023-07-13T13:54:20;34.15;;;31.13;;
26690;SDS011;14307;51.718;8.938;2023-07-13T13:56:49;32.42;;;29.83;;
26690;SDS011;14307;51.718;8.938;2023-07-13T13:59:17;33.22;;;30.73;;
26690;SDS011;14307;51.718;8.938;2023-07-13T14:01:45;32.42;;;29.98;;
26690;SDS011;14307;51.718;8.938;2023-07-13T14:04:16;31.58;;;29.25;;
26690;SDS011;14307;51.718;8.938;2023-07-13T14:06:45;28.58;;;26.50;;
26690;SDS011;14307;51.718;8.938;2023-07-13T14:09:13;34.13;;;31.73;;
26690;SDS011;14307;51.718;8.938;2023-07-13T14:11:42;30.63;;;28.27;;
26690;SDS011;14307;51.718;8.938;2023-07-13T14:14:15;33.15;;;30.80;;
26690;SDS011;14307;51.718;8.938;2023-07-13T14:16:47;34.38;;;32.05;;
26690;SDS011;14307;51.718;8.938;2023-07-13T14:19:20;33.95;;;31.65;;
26690;SDS011;14307;51.718;8.938;2023-07-13T14:21:47;32.58;;;30.15;;
26690;SDS011;14307;51.718;8.938;2023-07-13T14:24:15;32.78;;;30.65;;
26690;SDS011;14307;51.718;8.938;2023-07-13T14:26:42;33.13;;;30.88;;
26690;SDS011;14307;51.718;8.938;2023-07-13T14:29:16;32.78;;;30.67;;
26690;SDS011;14307;51.718;8.938;2023-07-13T14:31:49;32.97;;;30.48;;
26690;SDS011;14307;51.718;8.938;2023-07-13T14:34:16;29.45;;;27.38;;
26690;SDS011;14307;51.718;8.938;2023-07-13T14:36:44;33.78;;;31.50;;
26690;SDS011;14307;51.718;8.938;2023-07-13T14:41:44;33.03;;;30.52;;
26690;SDS011;14307;51.718;8.938;2023-07-13T14:44:12;30.63;;;28.52;;
26690;SDS011;14307;51.718;8.938;2023-07-13T14:46:39;31.92;;;29.73;;
26690;SDS011;14307;51.718;8.938;2023-07-13T14:51:48;33.72;;;31.25;;
26690;SDS011;14307;51.718;8.938;2023-07-13T14:54:15;36.55;;;33.85;;
26690;SDS011;14307;51.718;8.938;2023-07-13T14:56:42;31.75;;;29.58;;
26690;SDS011;14307;51.718;8.938;2023-07-13T14:59:08;32.38;;;29.95;;
26690;SDS011;14307;51.718;8.938;2023-07-13T15:01:36;33.22;;;30.67;;
26690;SDS011;14307;51.718;8.938;2023-07-13T15:04:04;31.80;;;29.70;;
26690;SDS011;14307;51.718;8.938;2023-07-13T15:06:31;33.60;;;31.13;;
26690;SDS011;14307;51.718;8.938;2023-07-13T15:09:17;34.15;;;31.70;;